createdAt,value
2023-02-09T00:04:18.796Z,11.57
2023-02-09T00:09:22.875Z,11.75
2023-02-09T00:14:25.847Z,10.60
2023-02-09T00:19:29.702Z,11.73
2023-02-09T00:24:34.903Z,11.35
2023-02-09T00:29:37.600Z,11.75
2023-02-09T00:34:40.381Z,11.57
2023-02-09T00:39:44.518Z,11.52
2023-02-09T00:44:47.208Z,10.48
2023-02-09T00:49:50.913Z,10.80
2023-02-09T00:54:55.084Z,11.07
2023-02-09T00:59:57.807Z,12.30
2023-02-09T01:05:00.773Z,11.82
2023-02-09T01:10:05.653Z,14.07
2023-02-09T01:15:11.134Z,13.07
2023-02-09T01:20:14.913Z,12.60
2023-02-09T01:25:19.220Z,11.63
2023-02-09T01:30:22.031Z,12.30
2023-02-09T01:35:24.799Z,12.15
2023-02-09T01:40:28.953Z,13.65
2023-02-09T01:45:36.225Z,12.38
2023-02-09T01:50:42.134Z,11.02
2023-02-09T01:55:51.494Z,13.67
2023-02-09T02:00:54.629Z,13.60
2023-02-09T02:06:01.258Z,13.20
2023-02-09T02:16:20.795Z,12.02
2023-02-09T02:22:15.193Z,12.70
2023-02-09T02:27:31.505Z,14.02
2023-02-09T02:32:44.152Z,12.38
2023-02-09T02:37:57.066Z,11.60
2023-02-09T02:43:07.132Z,12.60
2023-02-09T02:48:21.782Z,12.93
2023-02-09T02:53:29.172Z,13.27
2023-02-09T02:58:34.298Z,12.25
2023-02-09T03:03:41.403Z,13.07
2023-02-09T03:08:48.922Z,12.63
2023-02-09T03:14:06.149Z,14.05
2023-02-09T03:19:20.393Z,13.10
2023-02-09T03:24:35.205Z,12.70
2023-02-09T03:29:40.084Z,13.25
2023-02-09T03:34:45.675Z,13.45
2023-02-09T03:39:48.430Z,12.80
2023-02-09T03:44:51.139Z,12.63
2023-02-09T03:49:55.287Z,12.15
2023-02-09T03:54:58.031Z,13.38
2023-02-09T04:00:01.719Z,13.38
2023-02-09T04:05:16.030Z,14.10
2023-02-09T04:10:19.158Z,13.98
2023-02-09T04:15:21.866Z,12.43
2023-02-09T04:20:25.913Z,12.45
2023-02-09T04:25:28.781Z,11.10
2023-02-09T04:30:31.592Z,12.85
2023-02-09T04:35:35.760Z,13.27
2023-02-09T04:40:38.584Z,12.80
2023-02-09T04:45:42.197Z,13.32
2023-02-09T04:50:47.157Z,12.52
2023-02-09T04:55:52.516Z,13.02
2023-02-09T05:00:56.250Z,12.10
2023-02-09T05:06:02.892Z,12.07
2023-02-09T05:11:05.905Z,13.02
2023-02-09T05:16:10.747Z,13.15
2023-02-09T05:21:15.308Z,13.07
2023-02-09T05:26:18.052Z,12.38
2023-02-09T05:31:20.947Z,13.40
2023-02-09T05:36:25.125Z,13.18
2023-02-09T05:41:45.421Z,13.75
2023-02-09T05:46:48.144Z,17.02
2023-02-09T05:51:52.317Z,19.63
2023-02-09T05:56:55.165Z,17.92
2023-02-09T06:01:58.324Z,16.63
2023-02-09T06:07:02.515Z,14.65
2023-02-09T06:12:05.748Z,12.80
2023-02-09T06:17:08.563Z,14.75
2023-02-09T06:22:12.705Z,13.82
2023-02-09T06:27:15.426Z,11.88
2023-02-09T06:32:18.270Z,14.13
2023-02-09T06:37:22.530Z,13.68
2023-02-09T06:42:25.366Z,14.38
2023-02-09T06:47:28.156Z,14.52
2023-02-09T06:52:32.397Z,15.77
2023-02-09T06:57:35.483Z,16.00
2023-02-09T07:02:38.239Z,18.48
2023-02-09T07:07:43.030Z,16.88
2023-02-09T07:12:46.243Z,20.73
2023-02-09T07:17:49.017Z,21.88
2023-02-09T07:22:53.099Z,22.83
2023-02-09T07:27:55.926Z,20.45
2023-02-09T07:32:58.743Z,20.63
2023-02-09T07:38:02.868Z,27.95
2023-02-09T07:43:06.159Z,20.80
2023-02-09T07:48:10.978Z,27.70
2023-02-09T07:53:15.180Z,25.45
2023-02-09T07:58:19.905Z,18.42
2023-02-09T08:03:25.257Z,16.77
2023-02-09T08:08:30.248Z,16.52
2023-02-09T08:13:37.884Z,18.08
2023-02-09T08:18:43.497Z,16.40
2023-02-09T08:23:52.554Z,16.83
2023-02-09T08:28:55.837Z,16.80
2023-02-09T08:33:58.745Z,20.02
2023-02-09T08:39:03.208Z,21.55
2023-02-09T08:44:06.452Z,20.30
2023-02-09T08:49:09.268Z,20.85
2023-02-09T08:54:13.404Z,22.73
2023-02-09T08:59:18.430Z,19.88
2023-02-09T09:04:22.669Z,16.73
2023-02-09T09:09:26.826Z,18.98
2023-02-09T09:14:30.067Z,26.35
2023-02-09T09:19:32.880Z,16.90
2023-02-09T09:24:40.634Z,20.35
2023-02-09T09:29:44.037Z,18.75
2023-02-09T09:34:46.828Z,19.48
2023-02-09T09:39:51.435Z,17.70
2023-02-09T09:44:55.851Z,20.83
2023-02-09T09:49:58.812Z,21.63
2023-02-09T09:55:06.691Z,20.25
2023-02-09T10:00:19.109Z,18.55
2023-02-09T10:05:24.940Z,18.20
2023-02-09T10:10:38.976Z,18.90
2023-02-09T10:15:41.831Z,21.10
2023-02-09T10:20:48.660Z,19.02
2023-02-09T10:26:03.833Z,21.00
2023-02-09T10:31:16.676Z,21.30
2023-02-09T10:36:32.531Z,17.65
2023-02-09T10:41:37.795Z,20.55
2023-02-09T10:46:41.727Z,22.30
2023-02-09T10:51:44.680Z,22.00
2023-02-09T10:56:50.227Z,19.05
2023-02-09T11:01:56.920Z,21.13
2023-02-09T11:07:01.913Z,20.08
2023-02-09T11:12:10.978Z,21.10
2023-02-09T11:17:17.545Z,20.02
2023-02-09T11:22:29.422Z,21.17
2023-02-09T11:28:01.377Z,18.98
2023-02-09T11:33:16.284Z,19.55
2023-02-09T11:38:24.398Z,19.77
2023-02-09T11:43:33.564Z,20.35
2023-02-09T11:48:39.964Z,20.13
2023-02-09T11:53:49.781Z,21.87
2023-02-09T11:59:01.300Z,19.98
2023-02-09T12:04:11.710Z,19.90
2023-02-09T12:09:30.353Z,24.00
2023-02-09T12:14:49.092Z,18.52
2023-02-09T12:19:58.682Z,18.80
2023-02-09T12:25:20.256Z,18.55
2023-02-09T12:31:01.311Z,18.90
2023-02-09T12:36:29.762Z,17.73
2023-02-09T12:42:11.081Z,18.23
2023-02-09T12:47:46.240Z,17.70
2023-02-09T12:53:22.510Z,16.38
2023-02-09T12:58:54.937Z,16.90
2023-02-09T13:04:02.652Z,19.63
2023-02-09T13:09:10.861Z,17.50
2023-02-09T13:14:17.416Z,18.52
2023-02-09T13:19:52.738Z,18.98
2023-02-09T13:25:00.568Z,17.02
2023-02-09T13:30:03.395Z,17.00
2023-02-09T13:35:22.305Z,20.05
2023-02-09T13:40:27.115Z,18.05
2023-02-09T13:45:31.060Z,19.70
2023-02-09T13:50:35.315Z,20.55
2023-02-09T13:55:40.745Z,23.33
2023-02-09T14:00:46.331Z,19.02
2023-02-09T14:05:56.667Z,20.48
2023-02-09T14:11:06.840Z,19.25
2023-02-09T14:16:10.507Z,19.92
2023-02-09T14:21:31.079Z,18.88
2023-02-09T14:26:38.200Z,18.15
2023-02-09T14:36:53.987Z,17.58
2023-02-09T14:42:15.040Z,19.77
2023-02-09T14:47:37.406Z,18.83
2023-02-09T14:52:46.705Z,20.20
2023-02-09T14:57:49.690Z,19.45
2023-02-09T15:02:53.963Z,19.40
2023-02-09T15:08:05.824Z,20.42
2023-02-09T15:13:09.157Z,18.65
2023-02-09T15:18:19.650Z,22.95
2023-02-09T15:23:23.794Z,20.25
2023-02-09T15:28:29.976Z,22.50
2023-02-09T15:33:32.811Z,21.48
2023-02-09T15:38:37.391Z,22.17
2023-02-09T15:43:57.662Z,19.13
2023-02-09T15:49:00.498Z,20.33
2023-02-09T15:54:09.068Z,19.63
2023-02-09T15:59:18.807Z,20.77
2023-02-09T16:04:21.604Z,21.92
2023-02-09T16:09:28.572Z,20.50
2023-02-09T16:14:31.693Z,23.08
2023-02-09T16:19:34.693Z,22.60
2023-02-09T16:24:42.487Z,26.40
2023-02-09T16:29:45.272Z,32.47
2023-02-09T16:34:48.035Z,25.38
2023-02-09T16:39:52.276Z,28.20
2023-02-09T16:44:56.502Z,31.15
2023-02-09T16:50:01.057Z,30.33
2023-02-09T16:55:11.297Z,25.05
2023-02-09T17:00:15.809Z,25.55
2023-02-09T17:05:21.436Z,26.95
2023-02-09T17:10:28.802Z,25.85
2023-02-09T17:15:36.820Z,23.33
2023-02-09T17:20:44.038Z,29.05
2023-02-09T17:25:50.761Z,29.30
2023-02-09T17:30:57.945Z,33.58
2023-02-09T17:41:32.513Z,28.77
2023-02-09T17:46:35.675Z,25.00
2023-02-09T17:51:41.294Z,27.20
2023-02-09T17:56:46.315Z,26.42
2023-02-09T18:01:50.686Z,26.63
2023-02-09T18:06:54.350Z,29.75
2023-02-09T18:12:02.389Z,28.52
2023-02-09T18:17:05.206Z,29.35
2023-02-09T18:22:08.266Z,28.48
2023-02-09T18:27:16.025Z,27.40
2023-02-09T18:32:21.024Z,28.50
2023-02-09T18:37:24.205Z,29.52
2023-02-09T18:42:28.277Z,26.42
2023-02-09T18:47:31.478Z,29.15
2023-02-09T18:52:34.755Z,26.73
2023-02-09T18:57:39.495Z,25.05
2023-02-09T19:02:44.324Z,29.00
2023-02-09T19:07:50.004Z,29.40
2023-02-09T19:12:55.425Z,32.00
2023-02-09T19:17:58.214Z,32.60
2023-02-09T19:23:02.342Z,36.45
2023-02-09T19:28:06.574Z,34.50
2023-02-09T19:33:09.356Z,34.50
2023-02-09T19:38:12.168Z,32.00
2023-02-09T19:43:16.356Z,28.38
2023-02-09T19:48:19.422Z,27.67
2023-02-09T19:53:22.180Z,27.27
2023-02-09T19:58:26.400Z,24.02
2023-02-09T20:03:29.960Z,27.15
2023-02-09T20:08:32.728Z,26.80
2023-02-09T20:13:38.085Z,27.40
2023-02-09T20:18:41.088Z,28.00
2023-02-09T20:23:45.764Z,25.15
2023-02-09T20:28:50.969Z,27.08
2023-02-09T20:33:54.672Z,28.92
2023-02-09T20:38:57.399Z,28.17
2023-02-09T20:44:18.986Z,27.75
2023-02-09T20:49:23.338Z,28.52
2023-02-09T20:54:26.108Z,27.33
2023-02-09T20:59:30.998Z,29.58
2023-02-09T21:04:33.709Z,28.00
2023-02-09T21:09:36.533Z,30.02
2023-02-09T21:14:43.229Z,33.15
2023-02-09T21:19:46.151Z,30.70
2023-02-09T21:24:48.891Z,29.17
2023-02-09T21:29:53.016Z,32.70
2023-02-09T21:34:55.730Z,33.30
2023-02-09T21:40:01.936Z,35.00
2023-02-09T21:45:08.023Z,72.90
2023-02-09T21:50:12.786Z,118.78
2023-02-09T21:55:15.667Z,75.45
2023-02-09T22:00:20.143Z,59.67
2023-02-09T22:05:22.950Z,61.78
2023-02-09T22:10:25.714Z,54.72
2023-02-09T22:15:29.785Z,56.20
2023-02-09T22:20:32.537Z,41.42
2023-02-09T22:25:36.129Z,43.60
2023-02-09T22:30:40.254Z,43.22
2023-02-09T22:35:43.053Z,41.95
2023-02-09T22:40:45.766Z,40.83
2023-02-09T22:45:55.849Z,36.90
2023-02-09T22:50:58.617Z,36.92
2023-02-09T22:56:02.916Z,41.17
2023-02-09T23:01:08.036Z,41.13
2023-02-09T23:06:14.220Z,41.28
2023-02-09T23:11:18.353Z,39.03
2023-02-09T23:16:24.473Z,39.53
2023-02-09T23:21:29.809Z,35.55
2023-02-09T23:26:32.673Z,39.35
2023-02-09T23:31:37.527Z,42.33
2023-02-09T23:36:40.231Z,40.00
2023-02-09T23:41:43.158Z,40.10
2023-02-09T23:46:47.244Z,40.92
2023-02-09T23:51:50.098Z,39.47
2023-02-09T23:56:53.623Z,39.88
